< < Back
Terminal Aerodrome Forecast


Current Version              Previous Versions:   1  2  3  4  5  6  7  8  9  

Terminal Aerodrome Forecast

143
FTUS42 KJAX 022216 AAC
TAFSSI
TAF AMD
KSSI 022216Z 0222/0318 07007KT P6SM VCTS SCT025CB BKN050
      TEMPO 0222/0224 VRB20G30KT 1/2SM +TSRA BKN018 OVC025CB
     FM030100 23003KT P6SM VCSH SCT040 BKN100 BKN250
     FM031200 32007KT P6SM VCSH BKN040 OVC100=

Latest METAR

257
SAUS70 KWBC 030200 RRD
MTRSSI
METAR KSSI 030153Z AUTO 15003KT 8SM -RA SCT110 25/24 A2997 RMK AO2 LTG
DSNT SE RAB26 TSE0056 SLP151 P0000 T02500244


USA.gov is the U.S. government's official web portal to all federal, state and local government web resources and services.